Aeroporto :
LOGIN :

Iscrizione | Disclaimer

   EN    FR    IT 

 










Sommario :    VFR   VFR Marginale   IFR   IFR Intensivo   IFR Molto Intensivo
Visibilità : 
Base nubi : 
>= 8 km
>= 3000ft
5 / 8 km
1000 / 3000 ft
1500m / 5 km
500 / 1000 ft
800 / 1500m
200 / 500 ft
< 800m
< 200 ft
Simboli :   Temporali  Nebbia  Neve Forte  Precipitazioni Forti  Vento > 20 kt
SIGMETs :   Varie  Temporali  Ghiacco  Turbolenza  Onda orograficha  Ceneri Vulcaniche






- Altitudine del aeroporto : 277 ft
- Codice IATA : JER


EGJJ - Jersey

ULTIMO METAR :
  • 151020Z 26017KT 8000 VCSH VCFG FEW000 SCT003 BKN004 18/18 Q1005

METARs OBSOLETI :
  • 150950Z 25014KT 3500 VCSH BR VCFG FEW000 SCT001 OVC002 18/18 Q1005
  • 150920Z 25015KT 2500 -RA BR VCFG SCT000 OVC002 18/18 Q1004
  • 150850Z 25014KT 1100 R26/1500U VCFG BKN000 OVC001 18/18 Q1004
  • 150820Z 26014KT 0500 R26/0900D FG BKN000 18/18 Q1004
  • 150750Z 25017KT 0500 R26/0900D FG BKN000 BKN002 18/18 Q1004

TAF TAF EGJJ
Valido dal 15 a 09 ore il 15 a 18 ore UTC


150758Z 1509/1518 25010KT 4000 BR SCT002 BKN005
TEMPO 1509/1511 0300 FG BKN000
PROB30
TEMPO 1510/1513 5000 -SHRA BKN040CB
BECMG 1511/1513 8000 NSW SCT005
ATIS : +44 1534 498 073



MetMap, La meteo Aeronautica in un colpo d'occhio ! - Copyright ORBIFLY Dicembre 2007 - Disclaimer

ORBIFLY MET'MAP TEAM :

Programmazione e sviluppo : Alexandra Zaïnal
Concezione : Baudouin d'Aumeries
Supporto tecnico e logistico : Manuel Goepfert
Aiuto : Marc-Olivier Méhu
Aiuto per la traduzione : Arnaldo La Scala




FONTI E CREDITI :

   NOAA